Williamsport, Kentucky
Current Conditions -  °F | °C
As of 1:15 AM on Thursday 23 Oct 2014 (Local Time) from KSJS Reporting Station
Overcast Overcast  
Wind Chill: 47°   Ceiling: 2500
Heat Index: 47°   Visibility: 10mi
Dew Point: 41°   Wind: 0mph
Humidity: 81%   Direction: NA
Pressure: 30.22"   Gusts: NA
Location:  37.82°N, 82.73°W
Report Text: KSJS 230515Z AUTO 00000KT 10SM OVC025 08/05 A3022 RMK AO2 T00830052
Loading
Personal Weather Stations






























Interactive Weather Map
Tropical Storm Tracking
New forecast layout! Learn more

10-Day Weather Forecast

Advertisements
Track Severe Weather on mobile